sensor_id;sensor_type;location;lat;lon;timestamp;temperature;humidity
9385;DHT22;4732;49.340;10.886;2023-10-19T06:55:04;11.30;99.90
9385;DHT22;4732;49.340;10.886;2023-10-19T06:57:31;8.80;99.90
9385;DHT22;4732;49.340;10.886;2023-10-19T06:59:59;8.50;99.90
9385;DHT22;4732;49.340;10.886;2023-10-19T07:02:32;9.10;99.90
9385;DHT22;4732;49.340;10.886;2023-10-19T07:04:58;8.90;99.90
9385;DHT22;4732;49.340;10.886;2023-10-19T07:07:23;9.00;99.90
9385;DHT22;4732;49.340;10.886;2023-10-19T07:09:50;9.10;99.90
9385;DHT22;4732;49.340;10.886;2023-10-19T07:12:19;9.20;99.90
9385;DHT22;4732;49.340;10.886;2023-10-19T07:14:44;9.40;99.90
9385;DHT22;4732;49.340;10.886;2023-10-19T07:17:10;9.40;99.90
9385;DHT22;4732;49.340;10.886;2023-10-19T07:19:36;9.60;99.90
9385;DHT22;4732;49.340;10.886;2023-10-19T07:22:03;9.70;99.90
9385;DHT22;4732;49.340;10.886;2023-10-19T07:24:29;9.70;99.90
9385;DHT22;4732;49.340;10.886;2023-10-19T07:26:55;9.90;99.90
9385;DHT22;4732;49.340;10.886;2023-10-19T20:10:45;11.90;99.90
9385;DHT22;4732;49.340;10.886;2023-10-19T20:13:13;11.90;99.90
9385;DHT22;4732;49.340;10.886;2023-10-19T20:15:40;11.70;99.90
9385;DHT22;4732;49.340;10.886;2023-10-19T20:18:07;11.90;99.90
9385;DHT22;4732;49.340;10.886;2023-10-19T20:20:42;11.90;99.90
9385;DHT22;4732;49.340;10.886;2023-10-19T20:23:25;11.90;99.90
9385;DHT22;4732;49.340;10.886;2023-10-19T20:25:52;11.90;99.90
9385;DHT22;4732;49.340;10.886;2023-10-19T20:28:20;11.80;99.90
9385;DHT22;4732;49.340;10.886;2023-10-19T20:30:45;11.90;99.90
9385;DHT22;4732;49.340;10.886;2023-10-19T20:33:12;11.90;99.90
9385;DHT22;4732;49.340;10.886;2023-10-19T20:35:39;11.90;99.90
9385;DHT22;4732;49.340;10.886;2023-10-19T20:38:06;13.60;99.90
9385;DHT22;4732;49.340;10.886;2023-10-19T20:40:34;11.80;99.90
9385;DHT22;4732;49.340;10.886;2023-10-19T20:43:01;11.80;99.90
9385;DHT22;4732;49.340;10.886;2023-10-19T20:45:30;11.80;99.90
9385;DHT22;4732;49.340;10.886;2023-10-19T20:47:56;11.80;99.90
9385;DHT22;4732;49.340;10.886;2023-10-19T20:50:26;13.00;99.90
9385;DHT22;4732;49.340;10.886;2023-10-19T20:52:57;11.80;99.90
9385;DHT22;4732;49.340;10.886;2023-10-19T20:55:23;11.80;99.90
9385;DHT22;4732;49.340;10.886;2023-10-19T20:57:50;11.80;99.90
9385;DHT22;4732;49.340;10.886;2023-10-19T21:00:17;11.80;99.90
9385;DHT22;4732;49.340;10.886;2023-10-19T21:02:58;11.80;99.90
9385;DHT22;4732;49.340;10.886;2023-10-19T21:05:24;15.20;99.90
9385;DHT22;4732;49.340;10.886;2023-10-19T21:07:50;11.80;99.90
9385;DHT22;4732;49.340;10.886;2023-10-19T21:10:36;11.70;99.90
9385;DHT22;4732;49.340;10.886;2023-10-19T21:13:02;11.70;99.90
9385;DHT22;4732;49.340;10.886;2023-10-19T21:15:29;11.70;99.90
9385;DHT22;4732;49.340;10.886;2023-10-19T21:17:56;11.70;99.90
9385;DHT22;4732;49.340;10.886;2023-10-19T21:20:22;11.70;99.90
9385;DHT22;4732;49.340;10.886;2023-10-19T21:22:49;11.70;99.90
9385;DHT22;4732;49.340;10.886;2023-10-19T21:25:19;11.70;99.90
9385;DHT22;4732;49.340;10.886;2023-10-19T21:27:47;11.70;99.90
9385;DHT22;4732;49.340;10.886;2023-10-19T21:30:15;11.90;99.90
9385;DHT22;4732;49.340;10.886;2023-10-19T21:32:47;12.10;99.90
9385;DHT22;4732;49.340;10.886;2023-10-19T21:35:12;11.80;99.90
9385;DHT22;4732;49.340;10.886;2023-10-19T21:37:38;11.80;99.90
9385;DHT22;4732;49.340;10.886;2023-10-19T21:40:05;11.80;99.90
9385;DHT22;4732;49.340;10.886;2023-10-19T21:42:33;11.80;99.90
9385;DHT22;4732;49.340;10.886;2023-10-19T21:45:00;11.70;99.90
9385;DHT22;4732;49.340;10.886;2023-10-19T21:47:26;11.70;99.90
9385;DHT22;4732;49.340;10.886;2023-10-19T21:49:53;11.70;99.90
9385;DHT22;4732;49.340;10.886;2023-10-19T21:52:24;11.60;99.90
9385;DHT22;4732;49.340;10.886;2023-10-19T21:54:52;11.70;99.90
9385;DHT22;4732;49.340;10.886;2023-10-19T21:57:18;11.70;99.90
9385;DHT22;4732;49.340;10.886;2023-10-19T21:59:44;11.60;99.90
9385;DHT22;4732;49.340;10.886;2023-10-19T22:02:10;11.70;99.90
9385;DHT22;4732;49.340;10.886;2023-10-19T22:04:36;11.70;99.90
9385;DHT22;4732;49.340;10.886;2023-10-19T22:07:04;11.70;99.90
9385;DHT22;4732;49.340;10.886;2023-10-19T22:09:32;11.70;99.90
9385;DHT22;4732;49.340;10.886;2023-10-19T22:11:59;9.30;99.90
9385;DHT22;4732;49.340;10.886;2023-10-19T22:14:27;11.60;99.90
